createdAt,value
2019-01-17T00:02:25.806Z,109.37
2019-01-17T00:05:20.080Z,115.03
2019-01-17T00:08:14.334Z,130.80
2019-01-17T00:11:02.999Z,133.07
2019-01-17T00:14:06.730Z,129.83
2019-01-17T00:16:54.026Z,135.00
2019-01-17T00:19:51.815Z,180.90
2019-01-17T00:22:40.343Z,183.93
2019-01-17T00:25:27.971Z,163.83
2019-01-17T00:28:18.889Z,150.57
2019-01-17T00:31:02.396Z,153.70
2019-01-17T00:33:53.980Z,153.77
2019-01-17T00:36:40.943Z,153.07
2019-01-17T00:39:47.482Z,150.00
2019-01-17T00:42:35.763Z,136.87
2019-01-17T00:45:44.650Z,140.13
2019-01-17T00:48:25.722Z,153.90
2019-01-17T00:51:27.590Z,157.17
2019-01-17T00:54:18.614Z,150.50
2019-01-17T00:57:06.874Z,156.27
2019-01-17T01:00:04.859Z,161.63
2019-01-17T01:03:08.594Z,156.03
2019-01-17T01:06:02.603Z,155.27
2019-01-17T01:08:49.255Z,171.87
2019-01-17T01:11:35.502Z,169.63
2019-01-17T01:14:32.687Z,166.37
2019-01-17T01:17:30.301Z,168.67
2019-01-17T01:20:24.707Z,153.43
2019-01-17T01:23:12.911Z,165.63
2019-01-17T01:26:14.150Z,168.80
2019-01-17T01:29:11.738Z,193.40
2019-01-17T01:31:59.979Z,384.77
2019-01-17T01:34:48.195Z,419.23
2019-01-17T01:37:48.732Z,320.33
2019-01-17T01:40:43.010Z,387.17
2019-01-17T01:43:30.256Z,405.20
2019-01-17T01:46:13.528Z,397.50
2019-01-17T01:49:08.052Z,371.33
2019-01-17T01:51:55.849Z,483.93
2019-01-17T01:54:25.192Z,382.33
2019-01-17T01:56:54.450Z,365.33
2019-01-17T01:59:23.763Z,340.37
2019-01-17T02:01:53.015Z,341.60
2019-01-17T02:04:22.223Z,278.77
2019-01-17T02:06:51.436Z,357.17
2019-01-17T02:09:22.069Z,295.53
2019-01-17T02:11:51.359Z,323.47
2019-01-17T02:14:20.843Z,266.23
2019-01-17T02:16:50.067Z,182.33
2019-01-17T02:19:19.334Z,144.23
2019-01-17T02:21:48.663Z,171.73
2019-01-17T02:24:17.839Z,148.07
2019-01-17T02:26:47.121Z,162.97
2019-01-17T02:29:16.419Z,172.63
2019-01-17T02:31:45.691Z,221.77
2019-01-17T02:34:14.972Z,224.47
2019-01-17T02:36:44.287Z,214.33
2019-01-17T02:39:13.563Z,198.90
2019-01-17T02:41:42.786Z,189.10
2019-01-17T02:44:12.073Z,178.80
2019-01-17T02:46:41.339Z,180.57
2019-01-17T02:49:12.254Z,223.50
2019-01-17T02:51:41.553Z,168.40
2019-01-17T02:54:10.808Z,152.60
2019-01-17T02:56:41.894Z,142.47
2019-01-17T02:59:11.071Z,150.13
2019-01-17T03:01:40.351Z,150.40
2019-01-17T03:04:09.663Z,156.20
2019-01-17T03:06:38.944Z,134.50
2019-01-17T03:09:08.579Z,137.13
2019-01-17T03:11:37.807Z,126.77
2019-01-17T03:14:07.015Z,126.23
2019-01-17T03:16:36.272Z,116.27
2019-01-17T03:19:05.579Z,120.53
2019-01-17T03:21:34.872Z,112.93
2019-01-17T03:24:04.431Z,118.47
2019-01-17T03:26:33.755Z,108.93
2019-01-17T03:29:04.922Z,106.83
2019-01-17T03:31:34.225Z,116.70
2019-01-17T03:34:03.525Z,118.77
2019-01-17T03:36:32.819Z,116.33
2019-01-17T03:39:02.139Z,105.63
2019-01-17T03:41:31.442Z,99.67
2019-01-17T03:44:00.675Z,96.23
2019-01-17T03:46:33.564Z,85.23
2019-01-17T03:49:04.578Z,83.80
2019-01-17T03:51:33.867Z,84.00
2019-01-17T03:54:03.144Z,82.90
2019-01-17T03:56:32.463Z,77.07
2019-01-17T03:59:02.045Z,74.00
2019-01-17T04:01:31.427Z,70.17
2019-01-17T04:04:00.721Z,60.23
2019-01-17T04:06:30.088Z,63.30
2019-01-17T04:08:59.335Z,66.43
2019-01-17T04:11:28.648Z,54.70
2019-01-17T04:13:58.036Z,54.40
2019-01-17T04:16:27.319Z,52.13
2019-01-17T04:18:56.544Z,55.13
2019-01-17T04:21:25.840Z,57.67
2019-01-17T04:23:55.039Z,62.07
2019-01-17T04:26:24.267Z,64.70
2019-01-17T04:28:53.506Z,70.13
2019-01-17T04:31:22.805Z,57.57
2019-01-17T04:33:52.214Z,56.37
2019-01-17T04:36:21.586Z,56.50
2019-01-17T04:38:50.867Z,49.00
2019-01-17T04:41:20.172Z,51.40
2019-01-17T04:43:49.514Z,47.83
2019-01-17T04:46:18.840Z,45.93
2019-01-17T04:48:48.150Z,40.67
2019-01-17T04:51:17.443Z,35.30
2019-01-17T04:53:49.653Z,35.33
2019-01-17T04:56:18.723Z,39.50
2019-01-17T04:58:48.449Z,31.87
2019-01-17T05:01:17.718Z,38.00
2019-01-17T05:03:47.322Z,36.97
2019-01-17T05:06:16.599Z,35.73
2019-01-17T05:08:45.851Z,42.10
2019-01-17T05:11:15.067Z,40.93
2019-01-17T05:13:44.407Z,41.20
2019-01-17T05:16:13.836Z,39.63
2019-01-17T05:18:43.065Z,35.33
2019-01-17T05:21:12.353Z,35.77
2019-01-17T05:23:41.795Z,30.80
2019-01-17T05:26:11.071Z,27.10
2019-01-17T05:28:40.586Z,19.63
2019-01-17T05:31:12.232Z,20.83
2019-01-17T05:33:41.579Z,32.23
2019-01-17T05:36:11.332Z,42.37
2019-01-17T05:38:40.739Z,33.77
2019-01-17T05:41:10.060Z,44.10
2019-01-17T05:43:39.279Z,44.97
2019-01-17T05:46:08.795Z,48.47
2019-01-17T05:48:38.109Z,45.30
2019-01-17T05:51:07.310Z,50.17
2019-01-17T05:53:36.491Z,53.20
2019-01-17T05:56:05.873Z,42.77
2019-01-17T05:58:35.088Z,48.90
2019-01-17T06:01:04.556Z,51.67
2019-01-17T06:03:33.769Z,52.87
2019-01-17T06:06:03.138Z,60.37
2019-01-17T06:08:32.821Z,60.30
2019-01-17T06:11:01.990Z,64.30
2019-01-17T06:13:31.260Z,61.07
2019-01-17T06:16:00.764Z,58.87
2019-01-17T06:18:30.303Z,58.63
2019-01-17T06:20:59.569Z,55.40
2019-01-17T06:23:29.146Z,48.90
2019-01-17T06:26:00.447Z,47.23
2019-01-17T06:28:30.071Z,46.30
2019-01-17T06:31:00.438Z,40.40
2019-01-17T06:33:31.219Z,36.97
2019-01-17T06:36:00.491Z,37.77
2019-01-17T06:38:29.771Z,36.73
2019-01-17T06:40:59.115Z,42.30
2019-01-17T06:43:28.389Z,41.60
2019-01-17T06:45:57.751Z,44.83
2019-01-17T06:48:27.094Z,45.23
2019-01-17T06:50:57.519Z,42.83
2019-01-17T06:53:26.795Z,47.27
2019-01-17T06:55:57.184Z,47.80
2019-01-17T06:58:26.471Z,45.60
2019-01-17T07:00:55.664Z,40.60
2019-01-17T07:03:25.051Z,48.73
2019-01-17T07:05:54.467Z,38.03
2019-01-17T07:08:23.802Z,42.33
2019-01-17T07:10:53.143Z,56.43
2019-01-17T07:13:22.555Z,64.90
2019-01-17T07:15:51.909Z,69.17
2019-01-17T07:18:22.200Z,76.77
2019-01-17T07:20:52.943Z,75.47
2019-01-17T07:23:22.119Z,75.20
2019-01-17T07:25:51.452Z,73.13
2019-01-17T07:28:20.787Z,67.50
2019-01-17T07:30:50.003Z,63.97
2019-01-17T07:33:19.299Z,56.60
2019-01-17T07:35:48.737Z,57.23
2019-01-17T07:38:18.055Z,59.93
2019-01-17T07:40:47.303Z,62.00
2019-01-17T07:43:16.807Z,64.60
2019-01-17T07:45:46.014Z,64.33
2019-01-17T07:48:15.230Z,65.80
2019-01-17T07:50:44.483Z,67.57
2019-01-17T07:53:13.782Z,70.37
2019-01-17T07:55:47.570Z,71.23
2019-01-17T07:58:14.363Z,61.90
2019-01-17T08:00:43.741Z,64.93
2019-01-17T08:03:13.015Z,62.77
2019-01-17T08:05:42.250Z,59.67
2019-01-17T08:08:11.531Z,62.90
2019-01-17T08:10:40.722Z,59.53
2019-01-17T08:13:09.955Z,62.03
2019-01-17T08:15:39.227Z,67.47
2019-01-17T08:18:08.426Z,70.50
2019-01-17T08:20:37.832Z,75.00
2019-01-17T08:23:07.143Z,78.70
2019-01-17T08:25:36.463Z,74.93
2019-01-17T08:28:08.326Z,72.60
2019-01-17T08:30:37.634Z,62.43
2019-01-17T08:33:06.839Z,55.93
2019-01-17T08:35:36.147Z,62.50
2019-01-17T08:38:05.489Z,62.43
2019-01-17T08:40:34.973Z,53.80
2019-01-17T08:43:06.713Z,64.70
2019-01-17T08:45:36.000Z,71.70
2019-01-17T08:50:48.092Z,74.10
2019-01-17T08:53:17.077Z,63.03
2019-01-17T09:08:49.018Z,50.07
2019-01-17T09:11:18.317Z,55.10
2019-01-17T09:13:47.395Z,47.47
2019-01-17T09:16:16.433Z,49.67
2019-01-17T09:18:45.577Z,51.47
2019-01-17T09:21:14.653Z,52.63
2019-01-17T09:23:43.628Z,60.13
2019-01-17T09:26:12.532Z,54.60
2019-01-17T09:28:41.634Z,58.33
2019-01-17T09:31:10.626Z,58.97
2019-01-17T09:33:39.621Z,62.37
2019-01-17T09:36:08.635Z,70.00
2019-01-17T09:38:37.988Z,72.57
2019-01-17T09:41:06.874Z,76.87
2019-01-17T09:43:35.837Z,64.83
2019-01-17T09:46:04.860Z,62.97
2019-01-17T09:48:33.752Z,69.37
2019-01-17T09:51:02.758Z,64.10
2019-01-17T09:53:32.319Z,67.23
2019-01-17T09:56:01.648Z,66.17
2019-01-17T09:58:31.110Z,63.33
2019-01-17T10:01:00.443Z,64.93
2019-01-17T10:03:29.823Z,55.30
2019-01-17T10:05:59.264Z,55.43
2019-01-17T10:08:28.988Z,48.23
2019-01-17T10:10:58.448Z,53.17
2019-01-17T10:13:32.010Z,28.27
2019-01-17T10:16:35.827Z,22.50
2019-01-17T10:19:45.600Z,23.17
2019-01-17T10:22:40.734Z,19.43
2019-01-17T10:25:35.939Z,18.57
2019-01-17T10:28:54.801Z,19.53
2019-01-17T10:32:13.049Z,13.63
2019-01-17T10:35:09.260Z,14.90
2019-01-17T10:38:21.524Z,14.10
2019-01-17T10:41:38.005Z,18.77
2019-01-17T10:44:36.147Z,17.57
2019-01-17T10:47:30.583Z,18.53
2019-01-17T10:50:20.951Z,18.67
2019-01-17T10:53:39.561Z,18.07
2019-01-17T10:56:46.163Z,18.37
2019-01-17T10:59:49.049Z,14.73
2019-01-17T11:02:46.641Z,14.73
2019-01-17T11:05:36.083Z,11.27
2019-01-17T11:08:47.215Z,11.97
2019-01-17T11:11:48.430Z,10.73
2019-01-17T11:14:42.119Z,14.23
2019-01-17T11:17:58.215Z,15.97
2019-01-17T11:20:56.559Z,12.97
2019-01-17T11:23:55.011Z,10.67
2019-01-17T11:27:17.415Z,11.17
2019-01-17T11:30:09.304Z,7.37
2019-01-17T11:33:02.887Z,11.83
2019-01-17T11:36:03.361Z,9.17
2019-01-17T11:39:17.288Z,10.87
2019-01-17T11:42:28.197Z,7.57
2019-01-17T11:45:41.395Z,8.37
2019-01-17T11:48:45.191Z,10.20
2019-01-17T11:51:38.427Z,9.77
2019-01-17T11:54:16.237Z,8.60
2019-01-17T11:57:51.239Z,11.70
2019-01-17T12:01:13.709Z,8.70
2019-01-17T12:03:58.875Z,10.03
2019-01-17T12:06:28.461Z,7.23
2019-01-17T12:08:57.947Z,9.27
2019-01-17T12:11:27.886Z,10.07
2019-01-17T12:13:57.416Z,10.93
2019-01-17T12:16:26.943Z,11.80
2019-01-17T12:18:56.330Z,14.30
2019-01-17T12:21:25.700Z,13.93
2019-01-17T12:23:55.286Z,13.77
2019-01-17T12:26:25.117Z,11.73
2019-01-17T12:28:54.671Z,14.57
2019-01-17T12:31:23.987Z,11.30
2019-01-17T12:33:53.231Z,12.80
2019-01-17T12:36:22.624Z,12.10
2019-01-17T12:38:52.193Z,12.37
2019-01-17T12:41:21.728Z,9.73
2019-01-17T12:43:51.059Z,11.17
2019-01-17T12:46:20.466Z,11.83
2019-01-17T12:48:49.892Z,8.63
2019-01-17T12:51:19.512Z,9.37
2019-01-17T12:53:48.916Z,10.67
2019-01-17T12:56:18.330Z,12.47
2019-01-17T12:58:47.852Z,9.07
2019-01-17T13:01:17.407Z,12.07
2019-01-17T13:03:46.738Z,9.03
2019-01-17T13:06:16.168Z,9.33
2019-01-17T13:08:45.478Z,9.83
2019-01-17T13:11:14.874Z,9.80
2019-01-17T13:13:44.348Z,13.63
2019-01-17T13:16:13.915Z,8.60
2019-01-17T13:18:43.255Z,9.37
2019-01-17T13:21:12.759Z,10.67
2019-01-17T13:23:42.275Z,11.40
2019-01-17T13:26:12.536Z,9.90
2019-01-17T13:28:41.940Z,9.27
2019-01-17T13:31:11.411Z,12.10
2019-01-17T13:33:40.654Z,9.83
2019-01-17T13:36:14.028Z,8.80
2019-01-17T13:38:43.540Z,10.70
2019-01-17T13:41:12.895Z,10.73
2019-01-17T13:43:42.218Z,11.10
2019-01-17T13:46:11.681Z,9.23
2019-01-17T13:48:41.134Z,9.40
2019-01-17T13:51:10.746Z,7.10
2019-01-17T13:53:42.016Z,10.67
2019-01-17T13:56:11.437Z,9.23
2019-01-17T13:58:40.979Z,11.33
2019-01-17T14:01:10.402Z,12.07
2019-01-17T14:03:39.768Z,11.63
2019-01-17T14:06:09.426Z,13.73
2019-01-17T14:08:39.102Z,16.63
2019-01-17T14:11:08.480Z,18.10
2019-01-17T14:13:39.007Z,16.47
2019-01-17T14:16:09.212Z,15.87
2019-01-17T14:18:38.671Z,11.60
2019-01-17T14:21:07.967Z,16.33
2019-01-17T14:23:37.344Z,14.37
2019-01-17T14:26:06.776Z,13.60
2019-01-17T14:28:36.081Z,16.03
2019-01-17T14:31:07.225Z,13.63
2019-01-17T14:33:36.605Z,14.73
2019-01-17T14:36:06.213Z,16.53
2019-01-17T14:38:35.488Z,12.70
2019-01-17T14:41:04.871Z,16.70
2019-01-17T14:43:34.267Z,15.50
2019-01-17T14:46:03.620Z,15.53
2019-01-17T14:48:33.134Z,18.77
2019-01-17T14:51:02.855Z,15.90
2019-01-17T14:53:32.375Z,14.60
2019-01-17T14:56:01.839Z,16.53
2019-01-17T14:58:31.670Z,17.83
2019-01-17T15:01:01.315Z,17.67
2019-01-17T15:03:30.624Z,16.30
2019-01-17T15:06:00.022Z,17.17
2019-01-17T15:08:29.537Z,17.57
2019-01-17T15:10:58.857Z,23.67
2019-01-17T15:13:28.172Z,24.77
2019-01-17T15:15:57.779Z,33.87
2019-01-17T15:18:27.225Z,36.33
2019-01-17T15:20:56.660Z,52.80
2019-01-17T15:23:26.015Z,47.47
2019-01-17T15:25:55.307Z,30.73
2019-01-17T15:28:24.658Z,33.77
2019-01-17T15:30:54.159Z,47.53
2019-01-17T15:33:23.672Z,43.10
2019-01-17T15:35:53.086Z,36.70
2019-01-17T15:38:22.456Z,36.50
2019-01-17T15:40:53.024Z,33.83
2019-01-17T15:43:22.486Z,33.03
2019-01-17T15:45:51.823Z,33.03
2019-01-17T15:48:21.295Z,39.13
2019-01-17T15:50:50.787Z,47.97
2019-01-17T15:53:20.147Z,43.27
2019-01-17T15:55:49.439Z,63.27
2019-01-17T15:58:18.902Z,74.43
2019-01-17T16:00:48.323Z,82.67
2019-01-17T16:03:17.675Z,74.57
2019-01-17T16:05:47.100Z,94.60
2019-01-17T16:08:16.509Z,102.30
2019-01-17T16:10:45.811Z,69.77
2019-01-17T16:13:15.329Z,54.23
2019-01-17T16:15:45.050Z,50.43
2019-01-17T16:18:14.550Z,50.23
2019-01-17T16:20:43.987Z,51.30
2019-01-17T16:23:13.779Z,51.23
2019-01-17T16:25:43.055Z,59.40
2019-01-17T16:28:12.527Z,92.20
2019-01-17T16:30:41.929Z,140.23
2019-01-17T16:33:11.370Z,140.83
2019-01-17T16:35:40.795Z,93.80
2019-01-17T16:38:10.403Z,114.60
2019-01-17T16:43:33.154Z,102.80
2019-01-17T16:46:02.556Z,85.80
2019-01-17T16:48:32.063Z,90.67
2019-01-17T16:51:01.529Z,107.07
2019-01-17T16:53:31.181Z,100.27
2019-01-17T16:56:00.686Z,75.77
2019-01-17T16:58:30.239Z,68.97
2019-01-17T17:01:00.050Z,56.30
2019-01-17T17:03:29.611Z,54.83
2019-01-17T17:05:59.355Z,45.23
2019-01-17T17:08:28.984Z,49.57
2019-01-17T17:10:58.715Z,51.47
2019-01-17T17:13:28.133Z,47.17
2019-01-17T17:15:57.927Z,47.00
2019-01-17T17:18:27.316Z,48.00
2019-01-17T17:20:56.862Z,44.63
2019-01-17T17:23:26.418Z,47.17
2019-01-17T17:25:55.757Z,46.63
2019-01-17T17:28:25.199Z,46.27
2019-01-17T17:30:54.507Z,44.37
2019-01-17T17:33:23.881Z,46.73
2019-01-17T17:35:53.436Z,48.33
2019-01-17T17:38:23.092Z,66.07
2019-01-17T17:40:52.599Z,62.97
2019-01-17T17:43:22.010Z,60.37
2019-01-17T17:45:51.598Z,63.80
2019-01-17T17:48:21.078Z,70.47
2019-01-17T17:50:50.664Z,87.00
2019-01-17T18:35:04.060Z,96.87
2019-01-17T18:37:33.581Z,105.50
2019-01-17T18:40:02.897Z,104.80
2019-01-17T18:42:32.272Z,94.73
2019-01-17T18:45:01.611Z,93.40
2019-01-17T18:47:31.331Z,92.93
2019-01-17T18:50:00.667Z,126.53
2019-01-17T18:52:30.252Z,121.27
2019-01-17T18:54:59.827Z,112.43
2019-01-17T18:57:29.348Z,93.20
2019-01-17T18:59:58.704Z,89.30
2019-01-17T19:02:28.430Z,96.67
2019-01-17T19:04:58.014Z,85.80
2019-01-17T19:07:27.576Z,85.37
2019-01-17T19:09:57.157Z,82.83
2019-01-17T19:12:26.763Z,70.10
2019-01-17T19:14:56.176Z,77.13
2019-01-17T19:17:27.571Z,73.10
2019-01-17T19:19:57.360Z,83.50
2019-01-17T19:22:26.847Z,91.77
2019-01-17T19:24:56.756Z,87.57
2019-01-17T19:30:12.687Z,100.07
2019-01-17T19:32:42.657Z,122.57
2019-01-17T19:35:12.289Z,106.87
2019-01-17T19:37:41.763Z,100.70
2019-01-17T19:40:13.886Z,96.03
2019-01-17T19:42:43.302Z,91.77
2019-01-17T19:45:13.528Z,94.63
2019-01-17T19:47:43.391Z,86.07
2019-01-17T19:50:34.003Z,77.83
2019-01-17T19:53:03.839Z,77.07
2019-01-17T19:55:33.207Z,88.63
2019-01-17T19:58:02.806Z,87.87
2019-01-17T20:00:32.606Z,85.87
2019-01-17T20:03:02.195Z,91.40
2019-01-17T20:05:33.134Z,91.77
2019-01-17T20:08:02.856Z,96.20
2019-01-17T20:10:34.345Z,98.73
2019-01-17T20:13:04.025Z,122.87
2019-01-17T20:15:33.604Z,138.17
2019-01-17T20:18:03.205Z,135.53
2019-01-17T20:20:33.885Z,106.37
2019-01-17T20:23:03.347Z,118.50
2019-01-17T20:25:33.020Z,93.77
2019-01-17T20:28:02.492Z,104.33
2019-01-17T20:30:34.103Z,113.90
2019-01-17T20:33:05.783Z,101.37
2019-01-17T20:35:35.121Z,102.27
2019-01-17T20:38:05.066Z,76.20
2019-01-17T20:40:34.779Z,74.13
2019-01-17T20:43:04.618Z,75.17
2019-01-17T20:45:34.402Z,82.00
2019-01-17T20:48:03.756Z,89.17
2019-01-17T20:50:34.505Z,96.33
2019-01-17T20:53:04.300Z,97.97
2019-01-17T20:55:34.217Z,103.80
2019-01-17T20:58:03.722Z,108.47
2019-01-17T21:01:26.036Z,109.70
2019-01-17T21:03:55.443Z,114.37
2019-01-17T21:06:25.096Z,116.13
2019-01-17T21:08:54.658Z,124.30
2019-01-17T21:11:24.069Z,117.20
2019-01-17T21:13:53.401Z,118.93
2019-01-17T21:16:23.145Z,134.83
2019-01-17T21:18:52.559Z,141.93
2019-01-17T21:21:22.046Z,113.87
2019-01-17T21:23:51.644Z,91.70
2019-01-17T21:26:21.094Z,99.00
2019-01-17T21:28:50.594Z,63.43
2019-01-17T21:31:20.279Z,52.33
2019-01-17T21:33:49.764Z,33.93
2019-01-17T21:36:19.146Z,24.77
2019-01-17T21:38:48.687Z,23.60
2019-01-17T21:41:18.089Z,19.50
2019-01-17T21:43:48.923Z,19.70
2019-01-17T21:46:18.278Z,17.13
2019-01-17T21:48:47.696Z,15.17
2019-01-17T21:51:17.111Z,19.40
2019-01-17T21:53:46.555Z,16.77
2019-01-17T21:56:16.056Z,17.23
2019-01-17T21:58:45.392Z,17.70
2019-01-17T22:01:14.778Z,18.13
2019-01-17T22:03:44.163Z,17.20
2019-01-17T22:06:13.650Z,20.03
2019-01-17T22:08:43.192Z,16.70
2019-01-17T22:11:12.677Z,16.73
2019-01-17T22:13:42.088Z,21.53
2019-01-17T22:16:11.406Z,17.73
2019-01-17T22:18:40.849Z,15.87
2019-01-17T22:21:10.335Z,17.10
2019-01-17T22:23:39.892Z,17.53
2019-01-17T22:26:09.279Z,20.37
2019-01-17T22:28:38.610Z,16.93
2019-01-17T22:31:07.982Z,17.00
2019-01-17T22:33:37.381Z,13.37
2019-01-17T22:36:06.719Z,16.40
2019-01-17T22:38:36.282Z,15.17
2019-01-17T22:41:05.898Z,14.13
2019-01-17T22:43:35.392Z,16.77
2019-01-17T22:46:04.896Z,13.30
2019-01-17T22:48:34.460Z,15.27
2019-01-17T22:51:04.026Z,14.90
2019-01-17T22:53:33.683Z,14.20
2019-01-17T22:56:03.041Z,14.30
2019-01-17T22:58:32.412Z,12.90
2019-01-17T23:01:17.748Z,15.43
2019-01-17T23:03:48.465Z,13.13
2019-01-17T23:06:17.916Z,12.20
2019-01-17T23:08:49.508Z,12.80
2019-01-17T23:11:18.851Z,14.27
2019-01-17T23:13:48.760Z,12.03
2019-01-17T23:16:18.171Z,10.30
2019-01-17T23:18:47.667Z,11.83
2019-01-17T23:21:37.047Z,14.23
2019-01-17T23:24:07.010Z,13.70
2019-01-17T23:26:36.516Z,12.37
2019-01-17T23:29:06.070Z,12.70
2019-01-17T23:31:35.508Z,10.83
2019-01-17T23:34:05.107Z,12.83
2019-01-17T23:36:34.923Z,10.17
2019-01-17T23:39:07.368Z,14.53
2019-01-17T23:41:55.863Z,13.63
2019-01-17T23:44:25.607Z,10.77
2019-01-17T23:46:55.400Z,9.30
2019-01-17T23:49:24.881Z,13.07
2019-01-17T23:51:54.433Z,12.97
2019-01-17T23:54:24.015Z,10.60
2019-01-17T23:56:53.631Z,13.10
2019-01-17T23:59:24.546Z,11.43
